Time;durP1;ratioP1;P1;durP2;ratioP2;P2;SDS_P1;SDS_P2;PMS_P1;PMS_P2;Temp;Humidity;BMP_temperature;BMP_pressure;BME280_temperature;BME280_humidity;BME280_pressure;Samples;Min_cycle;Max_cycle;Signal;HPM_P1;HPM_P2
2023/10/18 05:47:08;;;;;;;5.63;4.07;;;;;;;;;;10673566;27;20483;-86
2023/10/18 05:57:15;;;;;;;33.78;8.27;;;;;;;;;;10618723;22;20518;-86
2023/10/18 06:02:23;;;;;;;8.98;3.05;;;;;;;;;;10540881;28;20025;-85
2023/10/18 06:07:24;;;;;;;5.22;3.30;;;;;;;;;;10542051;28;20069;-85
2023/10/18 06:12:37;;;;;;;;;;;;;;;;;;10539132;28;20369;-87
2023/10/18 06:17:47;;;;;;;6.03;3.10;;;;;;;;;;10539122;28;20363;-87
2023/10/18 06:22:50;;;;;;;6.13;3.50;;;;;;;;;;10540001;28;20036;-87
2023/10/18 06:27:53;;;;;;;5.95;4.30;;;;;;;;;;10538896;28;20035;-87
2023/10/18 06:32:55;;;;;;;5.53;3.97;;;;;;;;;;10542754;28;20115;-86
2023/10/18 06:37:56;;;;;;;4.82;3.38;;;;;;;;;;10525340;28;20412;-87
2023/10/18 06:43:03;;;;;;;;;;;;;;;;;;10540401;28;20021;-87
2023/10/18 06:48:04;;;;;;;3.90;3.30;;;;;;;;;;10538433;28;19917;-87
2023/10/18 06:53:06;;;;;;;5.22;3.47;;;;;;;;;;10540404;28;20126;-87
2023/10/18 07:03:37;;;;;;;6.53;5.00;;;;;;;;;;10514134;28;20040;-86
2023/10/18 07:08:40;;;;;;;5.45;3.30;;;;;;;;;;10542047;28;20023;-80
2023/10/18 07:13:46;;;;;;;7.65;4.68;;;;;;;;;;10541833;28;20024;-84
2023/10/18 07:19:03;;;;;;;5.75;4.63;;;;;;;;;;10511844;28;20032;-86
2023/10/18 07:25:01;;;;;;;8.57;4.50;;;;;;;;;;10516767;28;20055;-85
2023/10/18 07:30:16;;;;;;;7.53;5.97;;;;;;;;;;10521181;28;20516;-84
2023/10/18 07:35:52;;;;;;;11.02;7.22;;;;;;;;;;10516741;28;20365;-85
2023/10/18 07:41:37;;;;;;;7.22;4.38;;;;;;;;;;10516048;28;20527;-83
2023/10/18 07:47:19;;;;;;;6.60;4.90;;;;;;;;;;10451843;28;20040;-83
2023/10/18 07:58:17;;;;;;;4.43;3.85;;;;;;;;;;10599378;28;20047;-82
2023/10/18 08:03:28;;;;;;;5.03;3.58;;;;;;;;;;10603616;28;20039;-82
2023/10/18 08:08:47;;;;;;;7.63;6.10;;;;;;;;;;10597941;28;20467;-84
2023/10/18 08:19:55;;;;;;;6.88;4.90;;;;;;;;;;10594201;28;20031;-85
2023/10/18 08:36:07;;;;;;;5.22;4.50;;;;;;;;;;10592372;28;20032;-85
2023/10/18 08:41:37;;;;;;;8.63;6.07;;;;;;;;;;10589999;28;20482;-87
2023/10/18 08:46:43;;;;;;;4.97;4.28;;;;;;;;;;10579556;28;20039;-87
2023/10/18 08:52:11;;;;;;;7.10;5.50;;;;;;;;;;10592137;28;20398;-87
2023/10/18 08:57:48;;;;;;;6.47;4.55;;;;;;;;;;10509427;28;20416;-86
2023/10/18 09:02:51;;;;;;;8.23;6.35;;;;;;;;;;10527222;28;20027;-86
2023/10/18 09:07:53;;;;;;;5.93;3.97;;;;;;;;;;10616550;28;20028;-87
2023/10/18 09:17:56;;;;;;;7.15;5.50;;;;;;;;;;10590019;28;20428;-86
2023/10/18 09:23:03;;;;;;;5.60;3.25;;;;;;;;;;10590344;28;20027;-86
2023/10/18 09:28:10;;;;;;;6.35;4.40;;;;;;;;;;10586129;28;20033;-87
2023/10/18 09:33:14;;;;;;;9.00;7.47;;;;;;;;;;10590574;28;20498;-86
2023/10/18 09:38:18;;;;;;;8.68;4.30;;;;;;;;;;10597624;28;20054;-86
2023/10/18 09:43:19;;;;;;;8.73;6.80;;;;;;;;;;10591507;28;20031;-85
2023/10/18 09:48:20;;;;;;;6.75;4.65;;;;;;;;;;10590877;28;20431;-85
2023/10/18 09:53:26;;;;;;;6.28;3.90;;;;;;;;;;10589786;28;20066;-86
2023/10/18 09:58:29;;;;;;;6.20;4.95;;;;;;;;;;10601609;28;20019;-85
2023/10/18 10:03:32;;;;;;;9.60;6.95;;;;;;;;;;10603861;28;20034;-86
2023/10/18 10:08:35;;;;;;;7.97;5.75;;;;;;;;;;10606527;28;20101;-86
2023/10/18 10:13:37;;;;;;;6.90;4.65;;;;;;;;;;10593731;28;20059;-86
2023/10/18 10:18:43;;;;;;;7.63;5.13;;;;;;;;;;10616244;28;20020;-86
2023/10/18 10:23:44;;;;;;;7.00;4.53;;;;;;;;;;10606817;28;20032;-87
2023/10/18 10:34:08;;;;;;;6.20;4.32;;;;;;;;;;10598755;28;20027;-86
2023/10/18 10:39:12;;;;;;;7.00;6.03;;;;;;;;;;10605422;28;20031;-83
2023/10/18 10:44:23;;;;;;;6.20;4.43;;;;;;;;;;10608072;28;20027;-83
2023/10/18 10:49:44;;;;;;;5.43;3.90;;;;;;;;;;10610863;28;20027;-83
2023/10/18 10:54:53;;;;;;;6.63;5.15;;;;;;;;;;10590197;28;20036;-83
2023/10/18 10:59:57;;;;;;;6.60;4.72;;;;;;;;;;10607600;28;20026;-83
2023/10/18 11:04:58;;;;;;;6.80;4.55;;;;;;;;;;10606933;28;20129;-83
2023/10/18 11:09:59;;;;;;;8.40;3.40;;;;;;;;;;10603887;28;20023;-83
2023/10/18 11:15:01;;;;;;;6.25;3.10;;;;;;;;;;10604735;28;20051;-83
2023/10/18 11:20:12;;;;;;;6.70;3.30;;;;;;;;;;10602409;28;20020;-84
2023/10/18 11:25:30;;;;;;;6.57;4.80;;;;;;;;;;10601301;28;20024;-84
2023/10/18 11:30:31;;;;;;;5.20;3.85;;;;;;;;;;10606831;28;20023;-84
2023/10/18 11:36:08;;;;;;;6.68;5.55;;;;;;;;;;10606016;28;20059;-84
2023/10/18 11:41:04;;;;;;;5.70;3.35;;;;;;;;;;10605268;28;20016;-84
2023/10/18 11:46:06;;;;;;;5.07;3.22;;;;;;;;;;10611178;28;20027;-83
2023/10/18 11:51:08;;;;;;;14.77;11.07;;;;;;;;;;10609175;28;20031;-83
2023/10/18 11:56:09;;;;;;;8.77;6.05;;;;;;;;;;10619964;22;20064;-84
2023/10/18 12:01:17;;;;;;;8.05;4.72;;;;;;;;;;10622068;27;20031;-84
2023/10/18 12:06:25;;;;;;;5.47;4.10;;;;;;;;;;10620248;27;20027;-86
2023/10/18 12:11:29;;;;;;;10.55;5.72;;;;;;;;;;10588461;27;20096;-84
2023/10/18 12:16:52;;;;;;;6.10;3.95;;;;;;;;;;10608443;27;20062;-84
2023/10/18 12:21:59;;;;;;;5.88;3.78;;;;;;;;;;10621965;27;20046;-84
2023/10/18 12:27:18;;;;;;;4.75;3.92;;;;;;;;;;10624655;27;20058;-85
2023/10/18 12:32:25;;;;;;;6.10;3.25;;;;;;;;;;10642098;27;20027;-85
2023/10/18 12:37:32;;;;;;;6.40;3.10;;;;;;;;;;10655814;27;20029;-84
2023/10/18 12:42:33;;;;;;;7.18;4.78;;;;;;;;;;10634912;27;20031;-83
2023/10/18 12:47:34;;;;;;;5.07;3.47;;;;;;;;;;10621319;27;20025;-84
2023/10/18 12:57:38;;;;;;;7.78;4.57;;;;;;;;;;10638424;27;20035;-84
2023/10/18 13:08:15;;;;;;;5.47;3.45;;;;;;;;;;10650343;27;20023;-85
2023/10/18 13:13:19;;;;;;;4.65;3.00;;;;;;;;;;10630191;27;20110;-84
2023/10/18 13:18:23;;;;;;;3.95;3.15;;;;;;;;;;10629900;27;20016;-85
2023/10/18 13:23:29;;;;;;;4.95;3.42;;;;;;;;;;10631223;27;20027;-83
2023/10/18 13:29:27;;;;;;;5.88;4.57;;;;;;;;;;10629414;27;20034;-83
2023/10/18 13:34:06;;;;;;;5.68;3.80;;;;;;;;;;10631355;27;20371;-84
2023/10/18 13:39:11;;;;;;;5.10;3.63;;;;;;;;;;10623760;27;20015;-83
2023/10/18 13:44:19;;;;;;;8.02;5.93;;;;;;;;;;10619736;28;20340;-84
2023/10/18 13:49:20;;;;;;;6.95;4.35;;;;;;;;;;10617391;28;20059;-84
2023/10/18 13:54:21;;;;;;;6.03;3.53;;;;;;;;;;10617367;28;20058;-84
2023/10/18 13:59:22;;;;;;;7.97;4.28;;;;;;;;;;10617375;28;20114;-85
2023/10/18 14:04:28;;;;;;;4.68;2.92;;;;;;;;;;10619429;27;20047;-84
2023/10/18 14:09:33;;;;;;;5.90;4.13;;;;;;;;;;10631974;27;20034;-84
2023/10/18 14:14:36;;;;;;;5.13;2.90;;;;;;;;;;10627569;27;20015;-85
2023/10/18 14:19:38;;;;;;;4.82;2.65;;;;;;;;;;10629350;27;20458;-85
2023/10/18 14:24:39;;;;;;;4.97;2.83;;;;;;;;;;10631663;27;20082;-85
2023/10/18 14:29:40;;;;;;;3.65;2.60;;;;;;;;;;10627324;27;20082;-85
2023/10/18 14:34:41;;;;;;;5.35;3.10;;;;;;;;;;10625665;27;20032;-85
2023/10/18 14:39:44;;;;;;;4.95;2.80;;;;;;;;;;10624826;27;20015;-85
2023/10/18 14:44:45;;;;;;;5.75;3.67;;;;;;;;;;10626551;27;20023;-85
2023/10/18 14:49:46;;;;;;;2.80;2.00;;;;;;;;;;10624041;27;20446;-85
2023/10/18 14:54:49;;;;;;;5.40;3.05;;;;;;;;;;10626939;27;20031;-85
2023/10/18 14:59:51;;;;;;;5.70;3.83;;;;;;;;;;10625034;27;20540;-85
2023/10/18 15:04:52;;;;;;;5.57;3.42;;;;;;;;;;10623757;27;20536;-84
2023/10/18 15:09:54;;;;;;;4.88;2.67;;;;;;;;;;10643399;27;20049;-85
2023/10/18 15:14:55;;;;;;;5.45;3.15;;;;;;;;;;10623213;27;20391;-85
2023/10/18 15:19:57;;;;;;;5.32;3.00;;;;;;;;;;10622113;27;20019;-85
2023/10/18 15:24:59;;;;;;;3.67;2.80;;;;;;;;;;10641988;27;20019;-85
2023/10/18 15:30:07;;;;;;;4.30;3.03;;;;;;;;;;10625859;27;20023;-84
2023/10/18 15:35:11;;;;;;;3.63;2.70;;;;;;;;;;10624559;27;20451;-83
2023/10/18 15:40:15;;;;;;;5.07;3.50;;;;;;;;;;10623947;27;20049;-84
2023/10/18 15:45:17;;;;;;;4.90;2.92;;;;;;;;;;10642702;27;20027;-83
2023/10/18 15:50:19;;;;;;;4.15;2.50;;;;;;;;;;10646281;27;20018;-82
2023/10/18 15:55:21;;;;;;;6.72;3.65;;;;;;;;;;10657930;27;20035;-83
2023/10/18 16:00:22;;;;;;;4.03;2.85;;;;;;;;;;10656617;27;20038;-82
2023/10/18 16:05:26;;;;;;;2.85;2.10;;;;;;;;;;10641185;27;20031;-83
2023/10/18 16:10:30;;;;;;;4.35;2.72;;;;;;;;;;10637448;27;20035;-83
2023/10/18 16:15:37;;;;;;;5.40;3.00;;;;;;;;;;10654020;27;20102;-83
2023/10/18 16:20:38;;;;;;;7.00;3.00;;;;;;;;;;10632932;27;20040;-81
2023/10/18 16:25:39;;;;;;;4.25;2.47;;;;;;;;;;10639014;27;20048;-80
2023/10/18 16:30:40;;;;;;;5.55;3.40;;;;;;;;;;10630850;27;20458;-82
2023/10/18 16:35:43;;;;;;;6.70;4.78;;;;;;;;;;10627852;27;20048;-81
2023/10/18 16:40:44;;;;;;;5.35;4.22;;;;;;;;;;10628879;27;20026;-83
2023/10/18 16:45:45;;;;;;;8.10;4.93;;;;;;;;;;10626832;27;20070;-82
2023/10/18 16:50:46;;;;;;;4.82;3.72;;;;;;;;;;10638682;27;20034;-82
2023/10/18 16:55:55;;;;;;;4.65;3.63;;;;;;;;;;10618940;27;20341;-82
2023/10/18 17:01:00;;;;;;;5.53;3.90;;;;;;;;;;10621539;27;20029;-84
2023/10/18 17:06:04;;;;;;;4.53;3.35;;;;;;;;;;10620573;27;20113;-82
2023/10/18 17:11:09;;;;;;;5.32;3.20;;;;;;;;;;10620790;27;20050;-82
2023/10/18 17:16:10;;;;;;;7.70;3.60;;;;;;;;;;10624693;27;20026;-85
2023/10/18 17:21:12;;;;;;;5.30;3.30;;;;;;;;;;10627967;27;20023;-83
2023/10/18 17:26:15;;;;;;;4.70;3.33;;;;;;;;;;10627264;27;20023;-84
2023/10/18 17:31:21;;;;;;;4.50;3.33;;;;;;;;;;10632884;27;20027;-84
2023/10/18 17:36:22;;;;;;;5.05;3.35;;;;;;;;;;10628414;27;20030;-84
2023/10/18 17:41:24;;;;;;;5.80;3.50;;;;;;;;;;10641995;27;20069;-85
2023/10/18 17:46:25;;;;;;;5.18;3.20;;;;;;;;;;10627643;28;20035;-85
2023/10/18 17:51:26;;;;;;;5.72;4.10;;;;;;;;;;10621872;28;20123;-86
2023/10/18 17:56:51;;;;;;;10.88;7.43;;;;;;;;;;10644927;22;20484;-83
2023/10/18 18:02:02;;;;;;;7.90;5.72;;;;;;;;;;10458268;28;20396;-84
2023/10/18 18:07:04;;;;;;;5.28;4.13;;;;;;;;;;10616768;28;20517;-84
2023/10/18 18:12:37;;;;;;;9.05;5.65;;;;;;;;;;10621565;28;20439;-83
2023/10/18 18:17:39;;;;;;;8.38;6.25;;;;;;;;;;10618887;28;20056;-84
2023/10/18 18:22:43;;;;;;;5.07;3.53;;;;;;;;;;10617051;28;20032;-85
2023/10/18 18:27:49;;;;;;;5.88;3.80;;;;;;;;;;10621980;28;20046;-84
2023/10/18 18:32:52;;;;;;;5.00;3.42;;;;;;;;;;10620839;28;20015;-84
2023/10/18 18:38:08;;;;;;;7.32;4.43;;;;;;;;;;10619232;28;20363;-83
2023/10/18 18:43:20;;;;;;;5.68;3.20;;;;;;;;;;10638968;28;20395;-84
2023/10/18 18:48:47;;;;;;;4.25;3.33;;;;;;;;;;10622131;28;20486;-83
2023/10/18 18:53:49;;;;;;;5.15;4.10;;;;;;;;;;10628121;27;20030;-84
2023/10/18 18:58:52;;;;;;;4.30;3.03;;;;;;;;;;10614314;27;20052;-83
2023/10/18 19:03:53;;;;;;;4.38;3.63;;;;;;;;;;10648251;27;20034;-83
2023/10/18 19:09:00;;;;;;;4.68;3.55;;;;;;;;;;10627301;27;20106;-83
